Terminal Aerodrome Forecast
Issued by NWS

Home | Current Version | Previous Version | Text Only | Print | Product List | Glossary On
Versions: 1 2 3 4 5 6 7 8 9 10 11 12 13 14 15 16 17
000
FTUS43 KGRB 232336
TAFATW
TAF
KATW 232336Z 2400/2424 19010KT P6SM SCT040 BKN200
     FM240500 19009KT P6SM VCSH BKN035 OVC150
      TEMPO 2407/2410 5SM -TSRA BR BKN015 OVC035CB
     FM241000 19009KT 2SM TSRA BR BKN006 OVC012CB
     FM241400 20011G18KT 5SM HZ VCSH BKN008 OVC015
     FM241800 22011G18KT 6SM HZ SCT015 BKN035
      TEMPO 2418/2420 BKN015=

USA.gov is the U.S. government's official web portal to all federal, state and local government web resources and services.